sensor_id;sensor_type;location;lat;lon;timestamp;temperature;humidity
1179;DHT22;578;48.408;10.004;2023-10-08T00:00:36;13.30;99.90
1179;DHT22;578;48.408;10.004;2023-10-08T00:02:48;13.30;99.90
1179;DHT22;578;48.408;10.004;2023-10-08T00:04:50;13.30;99.90
1179;DHT22;578;48.408;10.004;2023-10-08T00:06:52;13.30;99.90
1179;DHT22;578;48.408;10.004;2023-10-08T00:08:54;13.30;99.90
1179;DHT22;578;48.408;10.004;2023-10-08T00:11:00;13.30;99.90
1179;DHT22;578;48.408;10.004;2023-10-08T00:13:06;13.30;99.90
1179;DHT22;578;48.408;10.004;2023-10-08T00:15:09;13.30;99.90
1179;DHT22;578;48.408;10.004;2023-10-08T00:17:12;13.40;99.90
1179;DHT22;578;48.408;10.004;2023-10-08T00:19:15;13.40;99.90
1179;DHT22;578;48.408;10.004;2023-10-08T00:21:19;13.50;99.90
1179;DHT22;578;48.408;10.004;2023-10-08T00:23:26;13.50;99.90
1179;DHT22;578;48.408;10.004;2023-10-08T00:25:28;13.50;99.90
1179;DHT22;578;48.408;10.004;2023-10-08T00:27:31;13.50;99.90
1179;DHT22;578;48.408;10.004;2023-10-08T00:29:39;13.50;99.90
1179;DHT22;578;48.408;10.004;2023-10-08T00:31:44;13.40;99.90
1179;DHT22;578;48.408;10.004;2023-10-08T00:33:46;13.40;99.90
1179;DHT22;578;48.408;10.004;2023-10-08T00:35:50;13.50;99.90
1179;DHT22;578;48.408;10.004;2023-10-08T00:37:50;13.50;99.90
1179;DHT22;578;48.408;10.004;2023-10-08T00:39:54;13.60;99.90
1179;DHT22;578;48.408;10.004;2023-10-08T00:41:57;13.60;99.90
1179;DHT22;578;48.408;10.004;2023-10-08T00:43:59;13.70;98.40
1179;DHT22;578;48.408;10.004;2023-10-08T00:46:01;13.70;99.20
1179;DHT22;578;48.408;10.004;2023-10-08T00:48:17;13.80;98.60
1179;DHT22;578;48.408;10.004;2023-10-08T00:50:22;13.90;97.20
1179;DHT22;578;48.408;10.004;2023-10-08T00:52:33;13.90;97.40
1179;DHT22;578;48.408;10.004;2023-10-08T00:54:43;13.90;98.90
1179;DHT22;578;48.408;10.004;2023-10-08T00:56:55;13.90;97.60
1179;DHT22;578;48.408;10.004;2023-10-08T00:58:58;14.00;96.30
1179;DHT22;578;48.408;10.004;2023-10-08T01:01:01;14.00;96.10
1179;DHT22;578;48.408;10.004;2023-10-08T01:03:11;14.00;96.80
1179;DHT22;578;48.408;10.004;2023-10-08T01:05:17;13.90;97.10
1179;DHT22;578;48.408;10.004;2023-10-08T01:07:21;13.90;97.50
1179;DHT22;578;48.408;10.004;2023-10-08T01:09:26;13.90;99.50
1179;DHT22;578;48.408;10.004;2023-10-08T01:11:32;13.90;99.40
1179;DHT22;578;48.408;10.004;2023-10-08T01:13:40;13.90;97.20
1179;DHT22;578;48.408;10.004;2023-10-08T01:15:46;13.90;96.20
1179;DHT22;578;48.408;10.004;2023-10-08T01:17:51;14.00;96.70
1179;DHT22;578;48.408;10.004;2023-10-08T01:19:59;14.00;96.40
1179;DHT22;578;48.408;10.004;2023-10-08T01:22:12;14.10;95.30
1179;DHT22;578;48.408;10.004;2023-10-08T01:24:18;14.10;95.10
1179;DHT22;578;48.408;10.004;2023-10-08T01:26:24;14.10;97.20
1179;DHT22;578;48.408;10.004;2023-10-08T01:28:26;14.10;95.80
1179;DHT22;578;48.408;10.004;2023-10-08T01:30:29;14.10;95.60
1179;DHT22;578;48.408;10.004;2023-10-08T01:32:36;14.10;95.90
1179;DHT22;578;48.408;10.004;2023-10-08T01:34:38;14.10;96.30
1179;DHT22;578;48.408;10.004;2023-10-08T01:36:45;14.10;95.80
1179;DHT22;578;48.408;10.004;2023-10-08T01:38:48;14.20;96.20
1179;DHT22;578;48.408;10.004;2023-10-08T01:40:50;14.20;96.60
1179;DHT22;578;48.408;10.004;2023-10-08T01:42:52;14.20;95.60
1179;DHT22;578;48.408;10.004;2023-10-08T01:44:54;14.10;95.60
1179;DHT22;578;48.408;10.004;2023-10-08T01:46:56;14.20;95.40
1179;DHT22;578;48.408;10.004;2023-10-08T01:48:59;14.10;95.20
1179;DHT22;578;48.408;10.004;2023-10-08T01:51:05;14.20;94.70
1179;DHT22;578;48.408;10.004;2023-10-08T01:53:12;14.20;94.80
1179;DHT22;578;48.408;10.004;2023-10-08T01:55:17;14.20;96.20
1179;DHT22;578;48.408;10.004;2023-10-08T01:57:20;14.20;94.90
1179;DHT22;578;48.408;10.004;2023-10-08T01:59:22;14.30;93.50
1179;DHT22;578;48.408;10.004;2023-10-08T02:01:24;14.30;93.50
1179;DHT22;578;48.408;10.004;2023-10-08T02:03:26;14.30;92.80
1179;DHT22;578;48.408;10.004;2023-10-08T02:05:28;14.30;93.10
1179;DHT22;578;48.408;10.004;2023-10-08T02:07:31;14.30;92.70
1179;DHT22;578;48.408;10.004;2023-10-08T02:09:34;14.30;93.00
1179;DHT22;578;48.408;10.004;2023-10-08T02:11:45;14.30;92.90
1179;DHT22;578;48.408;10.004;2023-10-08T02:13:46;14.30;93.20
1179;DHT22;578;48.408;10.004;2023-10-08T02:15:49;14.30;92.70
1179;DHT22;578;48.408;10.004;2023-10-08T02:17:52;14.30;92.60
1179;DHT22;578;48.408;10.004;2023-10-08T02:19:55;14.30;92.60
1179;DHT22;578;48.408;10.004;2023-10-08T02:21:57;14.30;92.40
1179;DHT22;578;48.408;10.004;2023-10-08T02:23:59;14.30;92.10
1179;DHT22;578;48.408;10.004;2023-10-08T02:26:00;14.40;92.60
1179;DHT22;578;48.408;10.004;2023-10-08T02:28:04;14.30;93.10
1179;DHT22;578;48.408;10.004;2023-10-08T02:30:09;14.30;93.20
1179;DHT22;578;48.408;10.004;2023-10-08T02:32:13;14.30;93.60
1179;DHT22;578;48.408;10.004;2023-10-08T02:34:14;14.20;94.40
1179;DHT22;578;48.408;10.004;2023-10-08T02:36:16;14.20;95.10
1179;DHT22;578;48.408;10.004;2023-10-08T02:38:20;14.20;95.40
1179;DHT22;578;48.408;10.004;2023-10-08T02:40:21;14.20;95.70
1179;DHT22;578;48.408;10.004;2023-10-08T02:42:27;14.20;96.50
1179;DHT22;578;48.408;10.004;2023-10-08T02:44:30;14.20;96.50
1179;DHT22;578;48.408;10.004;2023-10-08T02:46:32;14.20;96.80
1179;DHT22;578;48.408;10.004;2023-10-08T02:48:35;14.10;97.30
1179;DHT22;578;48.408;10.004;2023-10-08T02:50:35;14.10;97.20
1179;DHT22;578;48.408;10.004;2023-10-08T02:52:37;14.10;97.40
1179;DHT22;578;48.408;10.004;2023-10-08T02:54:39;14.00;98.00
1179;DHT22;578;48.408;10.004;2023-10-08T02:56:41;14.00;98.50
1179;DHT22;578;48.408;10.004;2023-10-08T02:58:45;13.90;99.30
1179;DHT22;578;48.408;10.004;2023-10-08T03:00:50;13.90;99.20
1179;DHT22;578;48.408;10.004;2023-10-08T03:02:53;13.90;99.40
1179;DHT22;578;48.408;10.004;2023-10-08T03:04:55;13.80;99.90
1179;DHT22;578;48.408;10.004;2023-10-08T03:06:57;13.80;99.90
1179;DHT22;578;48.408;10.004;2023-10-08T03:08:59;13.80;99.90
1179;DHT22;578;48.408;10.004;2023-10-08T03:11:04;13.70;99.90
1179;DHT22;578;48.408;10.004;2023-10-08T03:13:07;13.70;99.90
1179;DHT22;578;48.408;10.004;2023-10-08T03:15:11;13.70;99.90
1179;DHT22;578;48.408;10.004;2023-10-08T03:17:29;13.60;99.90
1179;DHT22;578;48.408;10.004;2023-10-08T03:19:38;13.60;99.90
1179;DHT22;578;48.408;10.004;2023-10-08T03:21:45;13.50;99.90
1179;DHT22;578;48.408;10.004;2023-10-08T03:23:51;13.50;99.90
1179;DHT22;578;48.408;10.004;2023-10-08T03:25:58;13.50;99.90
1179;DHT22;578;48.408;10.004;2023-10-08T03:28:01;13.50;99.90
1179;DHT22;578;48.408;10.004;2023-10-08T03:30:03;13.50;99.90
1179;DHT22;578;48.408;10.004;2023-10-08T03:32:15;13.40;99.90
1179;DHT22;578;48.408;10.004;2023-10-08T03:34:19;13.40;99.90
1179;DHT22;578;48.408;10.004;2023-10-08T03:36:21;13.50;99.90
1179;DHT22;578;48.408;10.004;2023-10-08T03:38:35;13.50;99.90
1179;DHT22;578;48.408;10.004;2023-10-08T03:40:46;13.50;99.90
1179;DHT22;578;48.408;10.004;2023-10-08T03:42:51;13.40;99.90
1179;DHT22;578;48.408;10.004;2023-10-08T03:44:56;13.40;99.90
1179;DHT22;578;48.408;10.004;2023-10-08T03:47:04;13.50;99.90
1179;DHT22;578;48.408;10.004;2023-10-08T03:49:11;13.50;99.90
1179;DHT22;578;48.408;10.004;2023-10-08T03:51:26;13.40;99.90
1179;DHT22;578;48.408;10.004;2023-10-08T03:53:29;13.40;99.90
1179;DHT22;578;48.408;10.004;2023-10-08T03:55:34;13.40;99.90
1179;DHT22;578;48.408;10.004;2023-10-08T03:57:36;13.40;99.90
1179;DHT22;578;48.408;10.004;2023-10-08T03:59:45;13.40;99.90
1179;DHT22;578;48.408;10.004;2023-10-08T04:01:49;13.40;99.90
1179;DHT22;578;48.408;10.004;2023-10-08T04:03:55;13.40;99.90
1179;DHT22;578;48.408;10.004;2023-10-08T04:06:00;13.40;99.90
1179;DHT22;578;48.408;10.004;2023-10-08T04:08:16;13.40;99.90
1179;DHT22;578;48.408;10.004;2023-10-08T04:10:25;13.40;99.90
1179;DHT22;578;48.408;10.004;2023-10-08T04:12:50;13.40;99.90
1179;DHT22;578;48.408;10.004;2023-10-08T04:14:53;13.40;99.90
1179;DHT22;578;48.408;10.004;2023-10-08T04:16:56;13.40;99.90
1179;DHT22;578;48.408;10.004;2023-10-08T04:18:59;13.40;99.90
1179;DHT22;578;48.408;10.004;2023-10-08T04:21:03;13.40;99.90
1179;DHT22;578;48.408;10.004;2023-10-08T04:23:13;13.40;99.90
1179;DHT22;578;48.408;10.004;2023-10-08T04:25:20;13.40;99.90
1179;DHT22;578;48.408;10.004;2023-10-08T04:27:21;13.30;99.90
1179;DHT22;578;48.408;10.004;2023-10-08T04:29:23;13.40;99.90
1179;DHT22;578;48.408;10.004;2023-10-08T04:31:25;13.30;99.90
1179;DHT22;578;48.408;10.004;2023-10-08T04:33:28;13.20;99.90
1179;DHT22;578;48.408;10.004;2023-10-08T04:35:35;13.20;99.90
1179;DHT22;578;48.408;10.004;2023-10-08T04:37:38;13.20;99.90
1179;DHT22;578;48.408;10.004;2023-10-08T04:39:41;13.20;99.90
1179;DHT22;578;48.408;10.004;2023-10-08T04:41:49;13.20;99.90
1179;DHT22;578;48.408;10.004;2023-10-08T04:43:54;13.10;99.90
1179;DHT22;578;48.408;10.004;2023-10-08T04:45:57;13.10;99.90
1179;DHT22;578;48.408;10.004;2023-10-08T04:47:57;13.10;99.90
1179;DHT22;578;48.408;10.004;2023-10-08T04:49:59;13.00;99.90
1179;DHT22;578;48.408;10.004;2023-10-08T04:52:06;13.00;99.90
1179;DHT22;578;48.408;10.004;2023-10-08T04:54:15;12.90;99.90
1179;DHT22;578;48.408;10.004;2023-10-08T04:56:17;12.80;99.90
1179;DHT22;578;48.408;10.004;2023-10-08T04:58:20;12.80;99.90
1179;DHT22;578;48.408;10.004;2023-10-08T05:00:31;12.80;99.90
1179;DHT22;578;48.408;10.004;2023-10-08T05:02:51;12.80;99.90
1179;DHT22;578;48.408;10.004;2023-10-08T05:04:54;12.70;99.90
1179;DHT22;578;48.408;10.004;2023-10-08T05:07:22;12.80;99.90
1179;DHT22;578;48.408;10.004;2023-10-08T05:09:38;12.90;99.90
1179;DHT22;578;48.408;10.004;2023-10-08T05:11:48;12.90;99.90
1179;DHT22;578;48.408;10.004;2023-10-08T05:14:10;13.00;99.90
1179;DHT22;578;48.408;10.004;2023-10-08T05:16:17;13.00;99.90
1179;DHT22;578;48.408;10.004;2023-10-08T05:18:36;13.00;99.90
1179;DHT22;578;48.408;10.004;2023-10-08T05:21:08;12.90;99.90
1179;DHT22;578;48.408;10.004;2023-10-08T05:23:26;12.90;99.90
1179;DHT22;578;48.408;10.004;2023-10-08T05:25:45;12.90;99.90
1179;DHT22;578;48.408;10.004;2023-10-08T05:27:58;12.90;99.90
1179;DHT22;578;48.408;10.004;2023-10-08T05:30:03;12.80;99.90
1179;DHT22;578;48.408;10.004;2023-10-08T05:32:17;12.80;99.90
1179;DHT22;578;48.408;10.004;2023-10-08T05:34:38;12.80;99.90
1179;DHT22;578;48.408;10.004;2023-10-08T05:36:51;12.90;99.90
1179;DHT22;578;48.408;10.004;2023-10-08T05:39:07;12.90;99.90
1179;DHT22;578;48.408;10.004;2023-10-08T05:41:30;12.90;99.90
1179;DHT22;578;48.408;10.004;2023-10-08T05:43:39;12.90;99.90
1179;DHT22;578;48.408;10.004;2023-10-08T05:45:57;12.90;99.90
1179;DHT22;578;48.408;10.004;2023-10-08T05:48:19;12.90;99.90
1179;DHT22;578;48.408;10.004;2023-10-08T05:50:28;13.00;99.90
1179;DHT22;578;48.408;10.004;2023-10-08T05:52:43;13.00;99.90
1179;DHT22;578;48.408;10.004;2023-10-08T05:55:02;12.90;99.90
1179;DHT22;578;48.408;10.004;2023-10-08T05:57:21;12.90;99.90
1179;DHT22;578;48.408;10.004;2023-10-08T05:59:40;12.90;99.90
1179;DHT22;578;48.408;10.004;2023-10-08T06:01:54;12.80;99.90
1179;DHT22;578;48.408;10.004;2023-10-08T06:04:06;12.80;99.90
1179;DHT22;578;48.408;10.004;2023-10-08T06:06:31;12.80;99.90
1179;DHT22;578;48.408;10.004;2023-10-08T06:08:48;12.80;99.90
1179;DHT22;578;48.408;10.004;2023-10-08T06:11:07;12.80;99.90
1179;DHT22;578;48.408;10.004;2023-10-08T06:13:27;12.80;99.90
1179;DHT22;578;48.408;10.004;2023-10-08T06:15:46;12.90;99.90
1179;DHT22;578;48.408;10.004;2023-10-08T06:17:50;12.90;99.90
1179;DHT22;578;48.408;10.004;2023-10-08T06:20:05;12.90;99.90
1179;DHT22;578;48.408;10.004;2023-10-08T06:22:10;13.00;99.90
1179;DHT22;578;48.408;10.004;2023-10-08T06:24:12;13.20;99.90
1179;DHT22;578;48.408;10.004;2023-10-08T06:26:17;13.20;99.90
1179;DHT22;578;48.408;10.004;2023-10-08T06:28:21;13.30;99.90
1179;DHT22;578;48.408;10.004;2023-10-08T06:30:25;13.40;99.90
1179;DHT22;578;48.408;10.004;2023-10-08T06:32:35;13.50;99.90
1179;DHT22;578;48.408;10.004;2023-10-08T06:34:38;13.60;99.90
1179;DHT22;578;48.408;10.004;2023-10-08T06:36:40;13.70;99.90
1179;DHT22;578;48.408;10.004;2023-10-08T06:38:43;13.80;99.90
1179;DHT22;578;48.408;10.004;2023-10-08T06:40:49;13.90;99.90
1179;DHT22;578;48.408;10.004;2023-10-08T06:42:53;13.90;99.90
1179;DHT22;578;48.408;10.004;2023-10-08T06:44:57;14.00;99.90
1179;DHT22;578;48.408;10.004;2023-10-08T06:46:59;14.00;99.90
1179;DHT22;578;48.408;10.004;2023-10-08T06:49:03;14.00;99.90
1179;DHT22;578;48.408;10.004;2023-10-08T06:51:08;14.10;99.90
1179;DHT22;578;48.408;10.004;2023-10-08T06:53:14;14.20;99.90
1179;DHT22;578;48.408;10.004;2023-10-08T06:55:15;14.30;99.90
1179;DHT22;578;48.408;10.004;2023-10-08T06:57:19;14.40;99.90
1179;DHT22;578;48.408;10.004;2023-10-08T06:59:21;14.50;99.90
1179;DHT22;578;48.408;10.004;2023-10-08T07:01:24;14.60;99.70
1179;DHT22;578;48.408;10.004;2023-10-08T07:03:26;14.70;98.90
1179;DHT22;578;48.408;10.004;2023-10-08T07:05:28;14.80;99.10
1179;DHT22;578;48.408;10.004;2023-10-08T07:07:31;14.80;98.50
1179;DHT22;578;48.408;10.004;2023-10-08T07:09:34;14.90;98.20
1179;DHT22;578;48.408;10.004;2023-10-08T07:11:36;14.90;97.90
1179;DHT22;578;48.408;10.004;2023-10-08T07:13:40;14.90;97.80
1179;DHT22;578;48.408;10.004;2023-10-08T07:15:43;15.00;97.80
1179;DHT22;578;48.408;10.004;2023-10-08T07:17:45;15.00;98.30
1179;DHT22;578;48.408;10.004;2023-10-08T07:19:46;15.10;98.30
1179;DHT22;578;48.408;10.004;2023-10-08T07:21:51;15.10;98.00
1179;DHT22;578;48.408;10.004;2023-10-08T07:23:57;15.10;97.00
1179;DHT22;578;48.408;10.004;2023-10-08T07:26:01;15.20;96.50
1179;DHT22;578;48.408;10.004;2023-10-08T07:28:11;15.30;97.00
1179;DHT22;578;48.408;10.004;2023-10-08T07:30:13;15.20;96.70
1179;DHT22;578;48.408;10.004;2023-10-08T07:32:27;15.30;97.90
1179;DHT22;578;48.408;10.004;2023-10-08T07:34:30;15.30;97.70
1179;DHT22;578;48.408;10.004;2023-10-08T07:36:33;15.40;97.90
1179;DHT22;578;48.408;10.004;2023-10-08T07:38:35;15.30;97.20
1179;DHT22;578;48.408;10.004;2023-10-08T07:40:39;15.30;97.60
1179;DHT22;578;48.408;10.004;2023-10-08T07:42:41;15.30;97.20
1179;DHT22;578;48.408;10.004;2023-10-08T07:44:44;15.30;97.50
1179;DHT22;578;48.408;10.004;2023-10-08T07:46:48;15.40;97.90
1179;DHT22;578;48.408;10.004;2023-10-08T07:48:51;15.70;97.50
1179;DHT22;578;48.408;10.004;2023-10-08T07:50:53;15.90;95.70
1179;DHT22;578;48.408;10.004;2023-10-08T07:52:54;16.00;95.20
1179;DHT22;578;48.408;10.004;2023-10-08T07:54:56;16.00;95.00
1179;DHT22;578;48.408;10.004;2023-10-08T07:57:00;16.00;94.90
1179;DHT22;578;48.408;10.004;2023-10-08T07:59:09;16.00;96.20
1179;DHT22;578;48.408;10.004;2023-10-08T08:01:15;16.00;94.90
1179;DHT22;578;48.408;10.004;2023-10-08T08:03:20;16.00;96.10
1179;DHT22;578;48.408;10.004;2023-10-08T08:05:21;16.10;95.50
1179;DHT22;578;48.408;10.004;2023-10-08T08:07:23;16.10;95.30
1179;DHT22;578;48.408;10.004;2023-10-08T08:09:25;16.10;95.20
1179;DHT22;578;48.408;10.004;2023-10-08T08:11:27;16.10;95.70
1179;DHT22;578;48.408;10.004;2023-10-08T08:13:31;16.10;96.30
1179;DHT22;578;48.408;10.004;2023-10-08T08:15:34;16.10;96.60
1179;DHT22;578;48.408;10.004;2023-10-08T08:17:41;16.10;95.90
1179;DHT22;578;48.408;10.004;2023-10-08T08:19:44;16.20;96.80
1179;DHT22;578;48.408;10.004;2023-10-08T08:21:47;16.20;95.60
1179;DHT22;578;48.408;10.004;2023-10-08T08:23:50;16.20;96.20
1179;DHT22;578;48.408;10.004;2023-10-08T08:25:53;16.20;96.80
1179;DHT22;578;48.408;10.004;2023-10-08T08:28:07;16.10;95.90
1179;DHT22;578;48.408;10.004;2023-10-08T08:30:18;16.10;97.40
1179;DHT22;578;48.408;10.004;2023-10-08T08:32:21;16.20;96.00
1179;DHT22;578;48.408;10.004;2023-10-08T08:34:23;16.10;96.60
1179;DHT22;578;48.408;10.004;2023-10-08T08:36:26;16.20;96.60
1179;DHT22;578;48.408;10.004;2023-10-08T08:38:28;16.30;97.90
1179;DHT22;578;48.408;10.004;2023-10-08T08:40:30;16.30;95.80
1179;DHT22;578;48.408;10.004;2023-10-08T08:42:33;16.40;95.50
1179;DHT22;578;48.408;10.004;2023-10-08T08:44:38;16.50;95.40
1179;DHT22;578;48.408;10.004;2023-10-08T08:46:46;16.60;93.10
1179;DHT22;578;48.408;10.004;2023-10-08T08:48:50;16.60;94.70
1179;DHT22;578;48.408;10.004;2023-10-08T08:50:54;16.80;91.50
1179;DHT22;578;48.408;10.004;2023-10-08T08:52:57;16.90;91.00
1179;DHT22;578;48.408;10.004;2023-10-08T08:54:59;17.10;89.60
1179;DHT22;578;48.408;10.004;2023-10-08T08:57:04;17.20;88.40
1179;DHT22;578;48.408;10.004;2023-10-08T08:59:07;17.30;86.30
1179;DHT22;578;48.408;10.004;2023-10-08T09:01:13;17.50;84.10
1179;DHT22;578;48.408;10.004;2023-10-08T09:03:17;17.80;78.60
1179;DHT22;578;48.408;10.004;2023-10-08T09:05:20;18.10;74.90
1179;DHT22;578;48.408;10.004;2023-10-08T09:07:33;18.20;73.30
1179;DHT22;578;48.408;10.004;2023-10-08T09:09:36;18.20;66.00
1179;DHT22;578;48.408;10.004;2023-10-08T09:11:40;18.30;71.20
1179;DHT22;578;48.408;10.004;2023-10-08T09:13:43;18.30;68.80
1179;DHT22;578;48.408;10.004;2023-10-08T09:15:45;18.70;65.40
1179;DHT22;578;48.408;10.004;2023-10-08T09:17:47;19.00;66.40
1179;DHT22;578;48.408;10.004;2023-10-08T09:19:52;19.20;56.70
1179;DHT22;578;48.408;10.004;2023-10-08T09:22:02;19.50;52.70
1179;DHT22;578;48.408;10.004;2023-10-08T09:24:05;19.80;54.80
1179;DHT22;578;48.408;10.004;2023-10-08T09:26:11;20.00;44.10
1179;DHT22;578;48.408;10.004;2023-10-08T09:28:14;19.90;38.60
1179;DHT22;578;48.408;10.004;2023-10-08T09:30:17;20.20;39.60
1179;DHT22;578;48.408;10.004;2023-10-08T09:32:19;20.30;34.50
1179;DHT22;578;48.408;10.004;2023-10-08T09:34:26;20.20;32.10
1179;DHT22;578;48.408;10.004;2023-10-08T09:36:31;20.10;30.70
1179;DHT22;578;48.408;10.004;2023-10-08T09:38:33;20.00;36.00
1179;DHT22;578;48.408;10.004;2023-10-08T09:40:38;19.90;39.50
1179;DHT22;578;48.408;10.004;2023-10-08T09:42:39;20.00;36.80
1179;DHT22;578;48.408;10.004;2023-10-08T09:44:41;20.00;40.40
1179;DHT22;578;48.408;10.004;2023-10-08T09:46:44;20.20;34.30
1179;DHT22;578;48.408;10.004;2023-10-08T09:48:50;20.50;30.70
1179;DHT22;578;48.408;10.004;2023-10-08T09:50:54;20.90;23.90
1179;DHT22;578;48.408;10.004;2023-10-08T09:53:01;21.10;21.30
1179;DHT22;578;48.408;10.004;2023-10-08T09:55:08;21.40;19.00
1179;DHT22;578;48.408;10.004;2023-10-08T09:57:11;21.30;14.70
1179;DHT22;578;48.408;10.004;2023-10-08T09:59:14;21.30;17.80
1179;DHT22;578;48.408;10.004;2023-10-08T10:01:17;21.00;19.60
1179;DHT22;578;48.408;10.004;2023-10-08T10:03:20;20.90;19.20
1179;DHT22;578;48.408;10.004;2023-10-08T10:05:29;20.90;20.60
1179;DHT22;578;48.408;10.004;2023-10-08T10:07:31;20.80;23.60
1179;DHT22;578;48.408;10.004;2023-10-08T10:09:34;20.40;27.10
1179;DHT22;578;48.408;10.004;2023-10-08T10:11:37;20.40;38.40
1179;DHT22;578;48.408;10.004;2023-10-08T10:13:40;20.50;35.70
1179;DHT22;578;48.408;10.004;2023-10-08T10:15:43;20.50;40.60
1179;DHT22;578;48.408;10.004;2023-10-08T10:17:47;20.20;40.30
1179;DHT22;578;48.408;10.004;2023-10-08T10:19:50;20.00;45.80
1179;DHT22;578;48.408;10.004;2023-10-08T10:21:53;20.00;66.20
1179;DHT22;578;48.408;10.004;2023-10-08T10:23:57;20.00;50.40
1179;DHT22;578;48.408;10.004;2023-10-08T10:26:01;20.10;50.40
1179;DHT22;578;48.408;10.004;2023-10-08T10:28:22;20.00;51.10
1179;DHT22;578;48.408;10.004;2023-10-08T10:30:24;19.90;53.70
1179;DHT22;578;48.408;10.004;2023-10-08T10:32:28;19.80;55.50
1179;DHT22;578;48.408;10.004;2023-10-08T10:34:29;19.80;52.40
1179;DHT22;578;48.408;10.004;2023-10-08T10:36:31;19.70;62.10
1179;DHT22;578;48.408;10.004;2023-10-08T10:38:32;19.60;68.40
1179;DHT22;578;48.408;10.004;2023-10-08T10:40:34;19.60;69.60
1179;DHT22;578;48.408;10.004;2023-10-08T10:42:46;19.60;69.20
1179;DHT22;578;48.408;10.004;2023-10-08T10:44:54;19.60;70.80
1179;DHT22;578;48.408;10.004;2023-10-08T10:46:59;19.70;62.70
1179;DHT22;578;48.408;10.004;2023-10-08T10:49:30;19.60;66.50
1179;DHT22;578;48.408;10.004;2023-10-08T10:51:37;19.70;66.10
1179;DHT22;578;48.408;10.004;2023-10-08T10:53:42;19.70;67.30
1179;DHT22;578;48.408;10.004;2023-10-08T10:55:47;19.80;72.10
1179;DHT22;578;48.408;10.004;2023-10-08T10:58:00;19.80;72.30
1179;DHT22;578;48.408;10.004;2023-10-08T11:00:12;19.80;74.70
1179;DHT22;578;48.408;10.004;2023-10-08T11:02:39;19.90;70.30
1179;DHT22;578;48.408;10.004;2023-10-08T11:04:43;20.00;80.40
1179;DHT22;578;48.408;10.004;2023-10-08T11:06:50;20.10;73.80
1179;DHT22;578;48.408;10.004;2023-10-08T11:08:57;20.10;83.60
1179;DHT22;578;48.408;10.004;2023-10-08T11:10:59;20.00;83.20
1179;DHT22;578;48.408;10.004;2023-10-08T11:13:07;20.10;83.90
1179;DHT22;578;48.408;10.004;2023-10-08T11:15:15;20.10;86.00
1179;DHT22;578;48.408;10.004;2023-10-08T11:17:22;20.30;74.40
1179;DHT22;578;48.408;10.004;2023-10-08T11:19:24;20.30;70.00
1179;DHT22;578;48.408;10.004;2023-10-08T11:21:28;20.30;74.80
1179;DHT22;578;48.408;10.004;2023-10-08T11:23:35;20.50;66.50
1179;DHT22;578;48.408;10.004;2023-10-08T11:25:36;20.50;57.40
1179;DHT22;578;48.408;10.004;2023-10-08T11:27:41;20.60;65.50
1179;DHT22;578;48.408;10.004;2023-10-08T11:29:48;20.70;69.40
1179;DHT22;578;48.408;10.004;2023-10-08T11:31:57;20.80;65.60
1179;DHT22;578;48.408;10.004;2023-10-08T11:34:02;20.90;63.20
1179;DHT22;578;48.408;10.004;2023-10-08T11:36:10;21.20;61.20
1179;DHT22;578;48.408;10.004;2023-10-08T11:38:19;21.20;62.50
1179;DHT22;578;48.408;10.004;2023-10-08T11:40:23;21.20;56.90
1179;DHT22;578;48.408;10.004;2023-10-08T11:42:28;21.30;49.30
1179;DHT22;578;48.408;10.004;2023-10-08T11:44:44;21.30;56.20
1179;DHT22;578;48.408;10.004;2023-10-08T11:46:46;21.40;60.10
1179;DHT22;578;48.408;10.004;2023-10-08T11:48:52;21.40;58.40
1179;DHT22;578;48.408;10.004;2023-10-08T11:50:54;21.40;59.70
1179;DHT22;578;48.408;10.004;2023-10-08T11:52:58;21.30;52.20
1179;DHT22;578;48.408;10.004;2023-10-08T11:55:04;21.40;61.30
1179;DHT22;578;48.408;10.004;2023-10-08T11:57:06;21.20;53.20
1179;DHT22;578;48.408;10.004;2023-10-08T11:59:09;21.20;58.70
1179;DHT22;578;48.408;10.004;2023-10-08T12:01:12;21.20;51.90
1179;DHT22;578;48.408;10.004;2023-10-08T12:03:17;21.10;55.10
1179;DHT22;578;48.408;10.004;2023-10-08T12:05:19;21.30;53.60
1179;DHT22;578;48.408;10.004;2023-10-08T12:07:23;21.40;55.20
1179;DHT22;578;48.408;10.004;2023-10-08T12:09:28;21.50;50.20
1179;DHT22;578;48.408;10.004;2023-10-08T12:11:30;21.60;53.80
1179;DHT22;578;48.408;10.004;2023-10-08T12:13:32;21.60;39.70
1179;DHT22;578;48.408;10.004;2023-10-08T12:15:34;21.70;47.30
1179;DHT22;578;48.408;10.004;2023-10-08T12:17:38;21.70;48.80
1179;DHT22;578;48.408;10.004;2023-10-08T12:19:42;21.90;46.30
1179;DHT22;578;48.408;10.004;2023-10-08T12:21:45;21.80;48.70
1179;DHT22;578;48.408;10.004;2023-10-08T12:23:48;21.80;48.20
1179;DHT22;578;48.408;10.004;2023-10-08T12:25:51;21.90;46.60
1179;DHT22;578;48.408;10.004;2023-10-08T12:27:53;21.80;45.80
1179;DHT22;578;48.408;10.004;2023-10-08T12:29:53;21.70;60.10
1179;DHT22;578;48.408;10.004;2023-10-08T12:31:59;21.70;54.00
1179;DHT22;578;48.408;10.004;2023-10-08T12:34:03;21.70;55.10
1179;DHT22;578;48.408;10.004;2023-10-08T12:36:06;21.70;50.40
1179;DHT22;578;48.408;10.004;2023-10-08T12:38:11;21.70;48.90
1179;DHT22;578;48.408;10.004;2023-10-08T12:40:13;21.80;48.00
1179;DHT22;578;48.408;10.004;2023-10-08T12:42:23;21.80;53.50
1179;DHT22;578;48.408;10.004;2023-10-08T12:44:26;21.70;56.80
1179;DHT22;578;48.408;10.004;2023-10-08T12:46:27;21.60;53.10
1179;DHT22;578;48.408;10.004;2023-10-08T12:48:31;21.50;64.70
1179;DHT22;578;48.408;10.004;2023-10-08T12:50:33;21.60;58.20
1179;DHT22;578;48.408;10.004;2023-10-08T12:52:44;21.60;56.00
1179;DHT22;578;48.408;10.004;2023-10-08T12:54:53;21.80;50.50
1179;DHT22;578;48.408;10.004;2023-10-08T12:56:56;21.90;47.90
1179;DHT22;578;48.408;10.004;2023-10-08T12:58:59;22.00;50.50
1179;DHT22;578;48.408;10.004;2023-10-08T13:01:05;21.90;43.20
1179;DHT22;578;48.408;10.004;2023-10-08T13:03:07;22.00;43.50
1179;DHT22;578;48.408;10.004;2023-10-08T13:05:15;22.00;52.30
1179;DHT22;578;48.408;10.004;2023-10-08T13:07:21;21.90;48.50
1179;DHT22;578;48.408;10.004;2023-10-08T13:09:24;21.90;51.10
1179;DHT22;578;48.408;10.004;2023-10-08T13:11:27;21.90;62.00
1179;DHT22;578;48.408;10.004;2023-10-08T13:13:30;21.90;60.30
1179;DHT22;578;48.408;10.004;2023-10-08T13:15:33;21.90;60.90
1179;DHT22;578;48.408;10.004;2023-10-08T13:17:35;21.90;64.30
1179;DHT22;578;48.408;10.004;2023-10-08T13:19:37;21.90;73.70
1179;DHT22;578;48.408;10.004;2023-10-08T13:21:39;21.80;63.30
1179;DHT22;578;48.408;10.004;2023-10-08T13:23:41;21.80;66.50
1179;DHT22;578;48.408;10.004;2023-10-08T13:25:44;21.80;63.90
1179;DHT22;578;48.408;10.004;2023-10-08T13:27:47;21.80;65.30
1179;DHT22;578;48.408;10.004;2023-10-08T13:29:48;21.70;68.30
1179;DHT22;578;48.408;10.004;2023-10-08T13:31:49;21.70;71.00
1179;DHT22;578;48.408;10.004;2023-10-08T13:33:51;21.70;63.20
1179;DHT22;578;48.408;10.004;2023-10-08T13:35:56;21.80;67.70
1179;DHT22;578;48.408;10.004;2023-10-08T13:37:58;21.70;67.70
1179;DHT22;578;48.408;10.004;2023-10-08T13:40:07;21.60;71.90